Osage, Minnesota
Current Conditions -  °F | °C
As of 5:56 PM on Friday 19 Dec 2014 (Local Time) from KPKD Reporting Station
Light Snow Light Snow  
Wind Chill: 13°   Ceiling: 500
Heat Index: 25°   Visibility: 0.75mi
Dew Point: 24°   Wind: 14mph
Humidity: 96%   Direction: 140°SE
Pressure: 30.06"   Gusts: NA
Location:  46.92°N, 95.26°W
Report Text: KPKD 192356Z AUTO 14012KT 3/4SM -SN BR OVC005 M04/M04 A3006 RMK AO2 P0000 T10391044
Loading
Personal Weather Stations






























Interactive Weather Map New forecast layout! Learn more

10-Day Weather Forecast

Advertisements
Track Severe Weather on mobile